Messwerte Tacoma

Temperatur

Temperatur
°C
1574294400 16.00 16.00 9
1574298000 17.00 17.00
1574301600 18.00 18.00
1574305200 19.00 19.00 2
1574308800 20.00 20.00 2
1574312400 21.00 21.00 2
1574316000 22.00 22.00 0
1574319600 23.00 23.00 0
1574323200 0.00 0.00 -1
1574326800 1.00 1.00 -2
1574330400 2.00 2.00 -2
1574334000 3.00 3.00 -2
1574337600 4.00 4.00 -3
1574341200 5.00 5.00 -3
1574344800 6.00 6.00 -3
1574348400 7.00 7.00 -1
1574352000 8.00 8.00 0
1574355600 9.00 9.00 1
1574359200 10.00 10.00
1574362800 11.00 11.00 2
1574366400 12.00 12.00 3
1574370000 13.00 13.00 3
1574373600 14.00 14.00 3
1574377200 15.00 15.00 3

Aktuellste Messwerte

Wettercharakter
Wetter: Nebel
Temperatur
3 °C
Feuchtigkeit
100 %
Wind
5 km/hWindrichtung: Süd
Luftdruck
1016 hPa
Messzeit: 21. November 2019, 16.00Datenquelle: METAR

Weitere Messstationen in der Nähe

Messstation Temperatur Entfernung
Fort Lewis 3 °C 6 km
Tacoma 6 °C 14 km
Seattle 7 °C 36 km
Seattle Boeing 8 °C 36 km
Olympia 3 °C 38 km
Bremerton 8 °C 44 km
Renton 7 °C 44 km

Wind

Windrichtung Böen Mittelwind
° km/h km/h
1574294400 16.00 15.00 - 16.00 30° 15
1574298000 17.00 16.00 - 17.00
1574301600 18.00 17.00 - 18.00
1574305200 19.00 18.00 - 19.00 200° 5
1574308800 20.00 19.00 - 20.00 0
1574312400 21.00 20.00 - 21.00 0
1574316000 22.00 21.00 - 22.00 0
1574319600 23.00 22.00 - 23.00 160° 5
1574323200 0.00 23.00 - 0.00 0
1574326800 1.00 0.00 - 1.00 0
1574330400 2.00 1.00 - 2.00 0
1574334000 3.00 2.00 - 3.00 0
1574337600 4.00 3.00 - 4.00 0
1574341200 5.00 4.00 - 5.00 190° 0
1574344800 6.00 5.00 - 6.00 0
1574348400 7.00 6.00 - 7.00 200° 5
1574352000 8.00 7.00 - 8.00 0
1574355600 9.00 8.00 - 9.00 210° 5
1574359200 10.00 9.00 - 10.00
1574362800 11.00 10.00 - 11.00 190° 5
1574366400 12.00 11.00 - 12.00 0
1574370000 13.00 12.00 - 13.00 50° 5
1574373600 14.00 13.00 - 14.00 0
1574377200 15.00 14.00 - 15.00 230° 5

Ihre Wetterstation

Fehlt Ihre Wetterstation auf unserem Portal?

Schreiben Sie an network@meteonews.ch

Klima

Wann ist es am wärmsten? Wann regnet es am wenigsten? Unsere Klimadaten geben Auskunft.